»·PEaware :: UAL1555 KSFO-KDEN

UAL1555 :: KSFO-KDEN

FLIGHT INFORMATION

Flight Status: Arrived
Operator:
United Airlines
More flights by this operator :: More flights under this callsign
Pilot: Colin F. (19691)
Aircraft: AIRBUS A320
(A320)
More flights by this aircraft type
Origin: KSFO San Francisco Intl
United States
Destination: KDEN Denver Intl
United States
More flights between these airports :: More routes between these airports
Route: TRUKN2 MOGEE Q124 BVL J154 TCH J56 CHE KAILE2
File this flight plan on PilotEdge
Remarks:
Altitude:
(Current/Filed)
35,000ft
Speed:
(Current/Filed)
469kts
Departed: 10-Jul-18 04:28 PM
Arrived: 10-Jul-18 06:37 PM
Distance/Time
Traveled:
838nm/2:08
Distance/Time
To Go:
Arrived

Flight Plot

Page will automatically refresh every two minutes.

Flight plan parsing failed; only flown route is shown


Map Options




Map Legend


Flown Route
Filed Route
Departure Airport
Arrival Airport
Navaid (VOR, NDB)
Fix

Horizontal Profiles

Position Reports

Time Latitude Longitude Heading Altitude Ground
Speed
10-Jul-18 15:55 37.617857 -122.380643 257 21ft 0kts
10-Jul-18 15:56 37.617857 -122.380643 257 21ft 0kts
10-Jul-18 15:57 37.617857 -122.380643 257 21ft 0kts
10-Jul-18 15:58 37.617857 -122.380643 257 21ft 0kts
10-Jul-18 15:59 37.617857 -122.380643 257 21ft 0kts
10-Jul-18 16:00 37.617857 -122.380643 257 21ft 0kts
10-Jul-18 16:01 37.617857 -122.380643 257 21ft 0kts
10-Jul-18 16:02 37.617857 -122.380643 257 21ft 0kts
10-Jul-18 16:03 37.617857 -122.380643 257 21ft 0kts
10-Jul-18 16:04 37.617857 -122.380643 257 21ft 0kts
10-Jul-18 16:05 37.617857 -122.380643 257 21ft 0kts
10-Jul-18 16:06 37.617857 -122.380643 257 21ft 0kts
10-Jul-18 16:07 37.617857 -122.380643 257 21ft 0kts
10-Jul-18 16:08 37.617857 -122.380643 257 21ft 0kts
10-Jul-18 16:09 37.617857 -122.380643 257 21ft 0kts
10-Jul-18 16:10 37.617857 -122.380643 257 21ft 0kts
10-Jul-18 16:11 37.617857 -122.380643 257 21ft 0kts
10-Jul-18 16:12 37.617857 -122.380643 257 21ft 0kts
10-Jul-18 16:13 37.617857 -122.380643 257 21ft 0kts
10-Jul-18 16:14 37.617857 -122.380643 257 21ft 0kts
10-Jul-18 16:15 37.617874 -122.380544 259 21ft 2kts
10-Jul-18 16:16 37.617981 -122.379801 259 21ft 2kts
10-Jul-18 16:17 37.617744 -122.379485 352 21ft 0kts
10-Jul-18 16:18 37.617744 -122.379485 352 21ft 0kts
10-Jul-18 16:19 37.617744 -122.379485 352 21ft 0kts
10-Jul-18 16:20 37.617744 -122.379485 352 21ft 0kts
10-Jul-18 16:21 37.617744 -122.379485 352 21ft 0kts
10-Jul-18 16:22 37.617744 -122.379485 352 21ft 0kts
10-Jul-18 16:23 37.618465 -122.379147 107 21ft 8kts
10-Jul-18 16:24 37.617376 -122.375659 112 21ft 14kts
10-Jul-18 16:25 37.615239 -122.370439 117 21ft 21kts
10-Jul-18 16:26 37.612157 -122.364164 117 21ft 21kts
10-Jul-18 16:27 37.610882 -122.359116 30 21ft 0kts
10-Jul-18 16:28 37.611070 -122.358981 26 21ft 10kts
10-Jul-18 16:29 37.619115 -122.376057 299 84ft 165kts
10-Jul-18 16:30 37.651730 -122.391195 60 2743ft 170kts
10-Jul-18 16:31 37.675244 -122.327116 63 4966ft 222kts
10-Jul-18 16:32 37.704353 -122.249585 64 7157ft 273kts
10-Jul-18 16:33 37.755426 -122.179969 35 10002ft 285kts
10-Jul-18 16:34 37.819799 -122.122098 35 12695ft 298kts
10-Jul-18 16:35 37.887280 -122.057200 48 14633ft 329kts
10-Jul-18 16:36 37.950107 -121.964347 48 15452ft 380kts
10-Jul-18 16:37 38.022248 -121.857732 49 16262ft 413kts
10-Jul-18 16:38 38.097690 -121.745915 48 17652ft 422kts
10-Jul-18 16:39 38.172849 -121.634067 49 18883ft 431kts
10-Jul-18 16:40 38.250169 -121.518572 49 20071ft 438kts
10-Jul-18 16:41 38.329725 -121.399295 49 21152ft 445kts
10-Jul-18 16:42 38.402454 -121.282830 51 22112ft 451kts
10-Jul-18 16:43 38.480423 -121.156795 51 22984ft 458kts
10-Jul-18 16:44 38.559194 -121.028962 51 23826ft 464kts
10-Jul-18 16:45 38.638943 -120.899018 51 24625ft 468kts
10-Jul-18 16:46 38.718813 -120.768351 51 25241ft 474kts
10-Jul-18 16:47 38.798852 -120.636887 51 25970ft 474kts
10-Jul-18 16:48 38.879055 -120.504603 51 26755ft 472kts
10-Jul-18 16:49 38.959201 -120.371875 51 27559ft 471kts
10-Jul-18 16:50 39.035319 -120.245292 52 28301ft 470kts
10-Jul-18 16:51 39.113407 -120.114913 52 29030ft 470kts
10-Jul-18 16:52 39.192084 -119.983018 52 29841ft 467kts
10-Jul-18 16:53 39.270476 -119.851072 52 30644ft 464kts
10-Jul-18 16:54 39.348908 -119.718415 52 31301ft 465kts
10-Jul-18 16:55 39.426612 -119.586555 52 31973ft 464kts
10-Jul-18 16:56 39.504418 -119.453944 52 32655ft 461kts
10-Jul-18 16:57 39.580699 -119.323376 52 33180ft 461kts
10-Jul-18 16:58 39.657776 -119.190902 52 33731ft 460kts
10-Jul-18 16:59 39.734333 -119.058773 52 34241ft 458kts
10-Jul-18 17:00 39.810390 -118.926954 52 34679ft 458kts
10-Jul-18 17:01 39.885270 -118.793672 57 35076ft 457kts
10-Jul-18 17:02 39.945389 -118.648067 61 35080ft 457kts
10-Jul-18 17:03 40.004966 -118.501526 61 35082ft 458kts
10-Jul-18 17:04 40.064124 -118.355296 60 35089ft 458kts
10-Jul-18 17:05 40.120573 -118.215087 61 35091ft 458kts
10-Jul-18 17:06 40.179468 -118.068098 62 35086ft 458kts
10-Jul-18 17:07 40.224332 -117.912876 71 35087ft 459kts
10-Jul-18 17:08 40.261516 -117.753419 71 35080ft 459kts
10-Jul-18 17:09 40.298498 -117.593717 71 35078ft 459kts
10-Jul-18 17:10 40.335301 -117.433636 72 35076ft 458kts
10-Jul-18 17:11 40.371402 -117.275499 72 35079ft 458kts
10-Jul-18 17:12 40.406762 -117.119507 72 35080ft 458kts
10-Jul-18 17:13 40.442822 -116.959297 73 35081ft 459kts
10-Jul-18 17:14 40.478634 -116.799038 72 35080ft 459kts
10-Jul-18 17:15 40.514193 -116.638752 72 35078ft 459kts
10-Jul-18 17:16 40.549577 -116.478075 72 35080ft 459kts
10-Jul-18 17:17 40.573375 -116.314288 83 35079ft 460kts
10-Jul-18 17:18 40.586121 -116.148731 83 35080ft 460kts
10-Jul-18 17:19 40.597877 -115.993364 83 35079ft 460kts
10-Jul-18 17:20 40.610299 -115.826007 83 35079ft 460kts
10-Jul-18 17:21 40.622465 -115.658726 83 35075ft 460kts
10-Jul-18 17:22 40.634376 -115.491624 83 35081ft 460kts
10-Jul-18 17:23 40.646029 -115.324683 84 35079ft 460kts
10-Jul-18 17:24 40.657114 -115.162964 84 35088ft 436kts
10-Jul-18 17:25 40.667749 -115.003803 84 35087ft 438kts
10-Jul-18 17:26 40.678159 -114.844923 84 35081ft 437kts
10-Jul-18 17:27 40.688393 -114.685418 84 35073ft 436kts
10-Jul-18 17:28 40.697885 -114.526497 87 35084ft 438kts
10-Jul-18 17:29 40.697877 -114.363060 88 35080ft 455kts
10-Jul-18 17:30 40.698505 -114.205040 88 35078ft 461kts
10-Jul-18 17:31 40.699073 -114.036479 89 35079ft 460kts
10-Jul-18 17:32 40.699394 -113.868043 88 35053ft 459kts
10-Jul-18 17:33 40.699470 -113.700225 88 35062ft 459kts
10-Jul-18 17:34 40.699301 -113.532296 88 35069ft 459kts
10-Jul-18 17:35 40.698881 -113.364066 89 35081ft 460kts
10-Jul-18 17:36 40.698427 -113.241586 89 35081ft 460kts
10-Jul-18 17:37 40.697593 -113.073495 89 35086ft 460kts
10-Jul-18 17:38 40.696509 -112.904525 89 35082ft 461kts
10-Jul-18 17:39 40.695215 -112.739944 89 35085ft 460kts
10-Jul-18 17:40 40.693653 -112.571771 89 35080ft 460kts
10-Jul-18 17:41 40.691844 -112.403492 89 35078ft 460kts
10-Jul-18 17:42 40.689804 -112.236156 90 35078ft 461kts
10-Jul-18 17:43 40.687540 -112.070053 90 35080ft 461kts
10-Jul-18 17:44 40.685038 -111.903948 90 35081ft 460kts
10-Jul-18 17:45 40.682263 -111.735414 90 35078ft 460kts
10-Jul-18 17:46 40.679240 -111.567190 90 35074ft 460kts
10-Jul-18 17:47 40.675967 -111.398770 89 35077ft 461kts
10-Jul-18 17:48 40.672515 -111.233323 90 35080ft 461kts
10-Jul-18 17:49 40.668759 -111.064947 91 35078ft 461kts
10-Jul-18 17:50 40.664748 -110.896233 90 35081ft 461kts
10-Jul-18 17:51 40.660505 -110.728001 91 35078ft 461kts
10-Jul-18 17:52 40.656021 -110.559868 91 35076ft 460kts
10-Jul-18 17:53 40.651287 -110.391593 90 35074ft 461kts
10-Jul-18 17:54 40.646398 -110.226256 91 35079ft 461kts
10-Jul-18 17:55 40.641157 -110.057557 91 35075ft 461kts
10-Jul-18 17:56 40.635719 -109.889845 91 35080ft 461kts
10-Jul-18 17:57 40.630012 -109.721628 91 35077ft 461kts
10-Jul-18 17:58 40.624066 -109.553593 91 35080ft 461kts
10-Jul-18 17:59 40.617886 -109.385880 91 35077ft 460kts
10-Jul-18 18:00 40.611607 -109.222012 92 35072ft 461kts
10-Jul-18 18:01 40.604925 -109.053736 91 35078ft 461kts
10-Jul-18 18:02 40.597986 -108.885178 92 35077ft 461kts
10-Jul-18 18:03 40.590830 -108.717345 92 35077ft 461kts
10-Jul-18 18:04 40.584660 -108.577021 92 35081ft 461kts
10-Jul-18 18:05 40.577053 -108.409157 92 35073ft 461kts
10-Jul-18 18:06 40.569408 -108.245617 92 35076ft 461kts
10-Jul-18 18:07 40.561711 -108.085758 92 35076ft 462kts
10-Jul-18 18:08 40.553407 -107.918268 92 35082ft 461kts
10-Jul-18 18:09 40.544832 -107.750237 93 35078ft 461kts
10-Jul-18 18:10 40.536021 -107.582392 92 35073ft 461kts
10-Jul-18 18:11 40.526960 -107.414459 93 35075ft 461kts
10-Jul-18 18:12 40.517640 -107.248984 93 35077ft 461kts
10-Jul-18 18:13 40.508367 -107.081406 93 35074ft 461kts
10-Jul-18 18:14 40.499198 -106.913272 93 35076ft 461kts
10-Jul-18 18:15 40.489844 -106.745661 92 35077ft 461kts
10-Jul-18 18:16 40.480260 -106.578278 93 35068ft 462kts
10-Jul-18 18:17 40.470571 -106.413148 92 32086ft 458kts
10-Jul-18 18:18 40.461190 -106.256982 93 28784ft 443kts
10-Jul-18 18:19 40.451062 -106.093038 93 25234ft 463kts
10-Jul-18 18:20 40.434594 -105.927168 100 22492ft 456kts
10-Jul-18 18:21 40.409701 -105.768856 100 20214ft 437kts
10-Jul-18 18:22 40.387196 -105.626752 100 19333ft 390kts
10-Jul-18 18:23 40.367157 -105.501210 100 18681ft 314kts
10-Jul-18 18:24 40.349445 -105.390315 100 18322ft 327kts
10-Jul-18 18:25 40.327605 -105.274985 105 17763ft 356kts
10-Jul-18 18:26 40.312082 -105.151652 97 15760ft 325kts
10-Jul-18 18:27 40.299279 -105.044074 97 14046ft 291kts
10-Jul-18 18:28 40.287610 -104.946436 97 12668ft 260kts
10-Jul-18 18:29 40.276268 -104.855997 99 11561ft 251kts
10-Jul-18 18:30 40.263870 -104.771912 104 11020ft 223kts
10-Jul-18 18:31 40.235786 -104.700066 140 10295ft 239kts
10-Jul-18 18:32 40.169780 -104.683662 179 9910ft 233kts
10-Jul-18 18:33 40.110269 -104.684291 179 9605ft 210kts
10-Jul-18 18:34 40.054979 -104.684985 178 8528ft 200kts
10-Jul-18 18:35 40.000521 -104.685612 179 7483ft 198kts
10-Jul-18 18:36 39.950427 -104.686174 179 6500ft 162kts
10-Jul-18 18:37 39.905746 -104.686465 179 5639ft 160kts
10-Jul-18 18:38 39.875717 -104.687053 178 5443ft 40kts
10-Jul-18 18:39 39.871553 -104.685250 150 5443ft 18kts
10-Jul-18 18:40 39.866475 -104.684992 179 5443ft 17kts
10-Jul-18 18:41 39.860650 -104.685013 163 5443ft 18kts
10-Jul-18 18:42 39.860414 -104.679411 142 5443ft 10kts
10-Jul-18 18:43 39.859253 -104.679265 181 5443ft 0kts

Navigation Log

Ident Type
Flight plan parsing failed, navigation log unavailable